createdAt,value
2024-03-03T00:00:49.309Z,101185.97
2024-03-03T00:03:16.926Z,101182.71
2024-03-03T00:05:44.747Z,101175.02
2024-03-03T00:08:12.322Z,101174.58
2024-03-03T00:10:40.082Z,101177.88
2024-03-03T00:13:07.551Z,101175.59
2024-03-03T00:15:35.176Z,101177.58
2024-03-03T00:18:02.810Z,101177.26
2024-03-03T00:20:30.516Z,101178.14
2024-03-03T00:22:57.996Z,101176.89
2024-03-03T00:25:25.487Z,101178.73
2024-03-03T00:27:53.006Z,101175.30
2024-03-03T00:30:20.495Z,101167.38
2024-03-03T00:32:47.971Z,101168.38
2024-03-03T00:35:16.209Z,101169.45
2024-03-03T00:37:43.769Z,101169.65
2024-03-03T00:40:12.432Z,101165.98
2024-03-03T00:42:39.990Z,101167.38
2024-03-03T00:45:07.720Z,101164.47
2024-03-03T00:47:35.746Z,101164.40
2024-03-03T00:50:03.940Z,101163.44
2024-03-03T00:52:31.507Z,101162.03
2024-03-03T00:54:59.378Z,101158.51
2024-03-03T00:57:27.072Z,101154.35
2024-03-03T00:59:54.616Z,101153.91
2024-03-03T01:02:22.125Z,101153.54
2024-03-03T01:04:51.538Z,101154.27
2024-03-03T01:07:19.266Z,101153.71
2024-03-03T01:09:47.006Z,101151.84
2024-03-03T01:12:14.746Z,101152.13
2024-03-03T01:14:42.291Z,101146.71
2024-03-03T01:17:09.948Z,101144.69
2024-03-03T01:19:38.014Z,101143.10
2024-03-03T01:22:05.911Z,101146.14
2024-03-03T01:24:33.448Z,101148.48
2024-03-03T01:27:02.222Z,101146.29
2024-03-03T01:29:29.732Z,101150.98
2024-03-03T01:31:57.249Z,101145.91
2024-03-03T01:34:26.938Z,101146.36
2024-03-03T01:36:54.832Z,101145.67
2024-03-03T01:39:22.360Z,101144.59
2024-03-03T01:41:49.857Z,101139.85
2024-03-03T01:44:17.405Z,101144.23
2024-03-03T01:46:45.069Z,101141.98
2024-03-03T01:49:15.705Z,101142.05
2024-03-03T01:51:43.544Z,101139.58
2024-03-03T01:54:11.064Z,101138.52
2024-03-03T01:56:38.537Z,101143.49
2024-03-03T01:59:06.082Z,101144.69
2024-03-03T02:01:33.928Z,101145.35
2024-03-03T02:04:01.609Z,101147.54
2024-03-03T02:06:31.355Z,101143.16
2024-03-03T02:08:59.349Z,101145.05
2024-03-03T02:11:26.934Z,101145.10
2024-03-03T02:13:54.579Z,101142.94
2024-03-03T02:16:22.229Z,101145.66
2024-03-03T02:18:49.827Z,101143.31
2024-03-03T02:21:25.009Z,101136.20
2024-03-03T02:23:53.023Z,101137.75
2024-03-03T02:26:22.642Z,101138.45
2024-03-03T02:28:54.357Z,101144.50
2024-03-03T02:31:22.334Z,101148.07
2024-03-03T02:33:50.517Z,101150.29
2024-03-03T02:36:18.255Z,101148.98
2024-03-03T02:38:52.330Z,101147.70
2024-03-03T02:41:19.843Z,101153.46
2024-03-03T02:43:47.455Z,101154.23
2024-03-03T02:46:15.269Z,101151.34
2024-03-03T02:48:42.942Z,101151.96
2024-03-03T02:51:10.499Z,101152.36
2024-03-03T02:53:38.515Z,101152.81
2024-03-03T02:56:08.422Z,101158.21
2024-03-03T02:58:36.122Z,101159.30
2024-03-03T03:01:04.012Z,101164.08
2024-03-03T03:03:32.474Z,101164.85
2024-03-03T03:06:00.151Z,101163.16
2024-03-03T03:08:27.594Z,101160.52
2024-03-03T03:10:55.557Z,101157.46
2024-03-03T03:13:23.106Z,101158.71
2024-03-03T03:15:51.046Z,101162.29
2024-03-03T03:18:18.638Z,101167.06
2024-03-03T03:20:46.255Z,101167.95
2024-03-03T03:23:13.851Z,101170.38
2024-03-03T03:25:41.374Z,101176.48
2024-03-03T03:28:08.916Z,101172.98
2024-03-03T03:30:36.533Z,101173.39
2024-03-03T03:33:04.370Z,101178.55
2024-03-03T03:35:32.060Z,101179.20
2024-03-03T03:37:59.891Z,101185.70
2024-03-03T03:40:27.595Z,101189.57
2024-03-03T03:42:55.309Z,101190.50
2024-03-03T03:45:22.824Z,101187.35
2024-03-03T03:47:50.477Z,101182.98
2024-03-03T03:50:18.098Z,101184.64
2024-03-03T03:52:45.628Z,101183.95
2024-03-03T03:55:13.106Z,101184.10
2024-03-03T03:57:40.668Z,101185.15
2024-03-03T04:00:11.525Z,101184.04
2024-03-03T04:02:42.276Z,101181.20
2024-03-03T04:05:10.172Z,101175.61
2024-03-03T04:07:38.865Z,101172.79
2024-03-03T04:10:06.886Z,101176.35
2024-03-03T04:12:34.428Z,101177.85
2024-03-03T04:15:01.908Z,101183.06
2024-03-03T04:17:29.456Z,101189.23
2024-03-03T04:19:57.128Z,101192.07
2024-03-03T04:22:24.772Z,101198.77
2024-03-03T04:24:52.322Z,101199.20
2024-03-03T04:27:19.801Z,101200.58
2024-03-03T04:29:48.669Z,101204.78
2024-03-03T04:32:16.222Z,101198.90
2024-03-03T04:34:43.755Z,101204.35
2024-03-03T04:37:11.586Z,101210.09
2024-03-03T04:39:39.293Z,101212.40
2024-03-03T04:42:06.862Z,101210.05
2024-03-03T04:44:34.389Z,101210.61
2024-03-03T04:47:01.919Z,101209.01
2024-03-03T04:49:29.625Z,101206.45
2024-03-03T04:51:57.162Z,101214.10
2024-03-03T04:54:24.706Z,101212.38
2024-03-03T04:56:52.231Z,101217.23
2024-03-03T04:59:19.746Z,101220.36
2024-03-03T05:01:47.274Z,101222.52
2024-03-03T05:04:15.196Z,101221.15
2024-03-03T05:06:46.178Z,101228.27
2024-03-03T05:09:13.954Z,101223.70
2024-03-03T05:11:41.534Z,101228.46
2024-03-03T05:14:09.096Z,101228.17
2024-03-03T05:16:36.676Z,101230.48
2024-03-03T05:19:04.282Z,101224.36
2024-03-03T05:21:31.764Z,101224.31
2024-03-03T05:23:59.279Z,101219.24
2024-03-03T05:26:27.720Z,101219.85
2024-03-03T05:28:55.657Z,101220.70
2024-03-03T05:31:23.259Z,101221.62
2024-03-03T05:33:51.096Z,101217.26
2024-03-03T05:36:18.613Z,101213.30
2024-03-03T05:38:46.186Z,101212.84
2024-03-03T05:41:13.640Z,101206.00
2024-03-03T05:43:41.192Z,101206.30
2024-03-03T05:46:08.883Z,101202.63
2024-03-03T05:48:36.591Z,101199.75
2024-03-03T05:51:04.170Z,101196.70
2024-03-03T05:53:31.764Z,101198.70
2024-03-03T05:55:59.280Z,101197.51
2024-03-03T05:58:26.860Z,101199.88
2024-03-03T06:00:54.504Z,101198.85
2024-03-03T06:03:22.096Z,101191.77
2024-03-03T06:05:49.566Z,101188.52
2024-03-03T06:08:17.865Z,101191.21
2024-03-03T06:10:45.371Z,101186.15
2024-03-03T06:13:12.854Z,101185.50
2024-03-03T06:15:40.828Z,101187.11
2024-03-03T06:18:08.361Z,101184.27
2024-03-03T06:20:35.902Z,101188.84
2024-03-03T06:23:04.062Z,101190.97
2024-03-03T06:25:32.921Z,101192.47
2024-03-03T06:28:00.498Z,101195.38
2024-03-03T06:30:28.132Z,101194.71
2024-03-03T06:32:55.764Z,101194.13
2024-03-03T06:35:23.283Z,101198.27
2024-03-03T06:37:53.717Z,101202.34
2024-03-03T06:40:21.510Z,101203.75
2024-03-03T06:42:49.155Z,101203.52
2024-03-03T06:45:16.804Z,101206.78
2024-03-03T06:47:44.361Z,101208.91
2024-03-03T06:50:12.639Z,101207.66
2024-03-03T06:52:40.139Z,101208.55
2024-03-03T06:55:08.536Z,101214.55
2024-03-03T06:57:36.219Z,101218.89
2024-03-03T07:00:04.840Z,101220.92
2024-03-03T07:02:51.189Z,101221.92
2024-03-03T07:05:18.756Z,101216.06
2024-03-03T07:07:46.313Z,101218.85
2024-03-03T07:10:13.876Z,101214.73
2024-03-03T07:12:41.487Z,101211.19
2024-03-03T07:15:10.044Z,101209.35
2024-03-03T07:17:37.920Z,101211.09
2024-03-03T07:20:07.126Z,101210.31
2024-03-03T07:22:36.351Z,101208.45
2024-03-03T07:25:04.421Z,101215.54
2024-03-03T07:27:32.167Z,101215.04
2024-03-03T07:29:59.735Z,101216.53
2024-03-03T07:32:30.662Z,101214.77
2024-03-03T07:34:58.489Z,101216.84
2024-03-03T07:37:27.019Z,101218.30
2024-03-03T07:39:54.603Z,101223.92
2024-03-03T07:42:22.350Z,101223.86
2024-03-03T07:44:49.850Z,101231.09
2024-03-03T07:47:17.333Z,101234.63
2024-03-03T07:49:44.857Z,101236.91
2024-03-03T07:52:12.400Z,101237.26
2024-03-03T07:54:39.910Z,101231.81
2024-03-03T07:57:08.308Z,101225.94
2024-03-03T07:59:35.772Z,101226.64
2024-03-03T08:02:03.581Z,101225.39
2024-03-03T08:04:31.457Z,101232.21
2024-03-03T08:06:59.061Z,101237.88
2024-03-03T08:09:26.923Z,101232.66
2024-03-03T08:11:54.574Z,101229.53
2024-03-03T08:14:22.102Z,101238.55
2024-03-03T08:16:49.583Z,101240.66
2024-03-03T08:19:17.150Z,101240.55
2024-03-03T08:21:44.674Z,101231.52
2024-03-03T08:24:12.453Z,101226.44
2024-03-03T08:26:39.961Z,101230.44
2024-03-03T08:29:08.282Z,101231.77
2024-03-03T08:31:37.049Z,101232.35
2024-03-03T08:34:04.736Z,101231.77
2024-03-03T08:36:32.218Z,101226.99
2024-03-03T08:38:59.763Z,101227.57
2024-03-03T08:41:27.222Z,101228.52
2024-03-03T08:43:54.725Z,101228.05
2024-03-03T08:46:22.295Z,101230.52
2024-03-03T08:48:50.021Z,101231.41
2024-03-03T08:51:17.712Z,101231.79
2024-03-03T08:53:45.290Z,101228.20
2024-03-03T08:56:12.896Z,101229.79
2024-03-03T08:58:41.181Z,101229.98
2024-03-03T09:01:12.618Z,101228.45
2024-03-03T09:03:40.220Z,101224.67
2024-03-03T09:06:07.719Z,101224.70
2024-03-03T09:08:35.318Z,101226.42
2024-03-03T09:11:04.749Z,101229.53
2024-03-03T09:13:32.234Z,101224.54
2024-03-03T09:15:59.754Z,101218.85
2024-03-03T09:18:27.381Z,101219.35
2024-03-03T09:20:54.939Z,101217.98
2024-03-03T09:23:22.457Z,101218.84
2024-03-03T09:25:50.275Z,101218.81
2024-03-03T09:28:17.874Z,101214.48
2024-03-03T09:30:45.486Z,101211.90
2024-03-03T09:33:13.302Z,101214.13
2024-03-03T09:35:40.965Z,101211.16
2024-03-03T09:38:09.101Z,101212.53
2024-03-03T09:40:37.832Z,101213.71
2024-03-03T09:43:08.165Z,101214.41
2024-03-03T09:45:35.781Z,101209.91
2024-03-03T09:48:04.105Z,101211.80
2024-03-03T09:50:31.813Z,101206.92
2024-03-03T09:52:59.427Z,101202.04
2024-03-03T09:55:27.194Z,101202.00
2024-03-03T09:57:54.933Z,101200.73
2024-03-03T10:00:23.647Z,101198.25
2024-03-03T10:02:51.331Z,101194.42
2024-03-03T10:05:18.970Z,101192.84
2024-03-03T10:07:53.831Z,101193.16
2024-03-03T10:10:27.370Z,101192.27
2024-03-03T10:12:55.401Z,101192.16
2024-03-03T10:15:23.003Z,101188.96
2024-03-03T10:17:51.828Z,101189.26
2024-03-03T10:20:19.611Z,101190.09
2024-03-03T10:22:48.055Z,101190.05
2024-03-03T10:25:16.791Z,101192.45
2024-03-03T10:27:46.223Z,101192.61
2024-03-03T10:30:16.347Z,101197.29
2024-03-03T10:32:44.029Z,101194.05
2024-03-03T10:35:12.887Z,101194.45
2024-03-03T10:37:56.913Z,101197.41
2024-03-03T10:40:24.501Z,101194.74
2024-03-03T10:42:52.104Z,101194.13
2024-03-03T10:45:20.126Z,101191.98
2024-03-03T10:47:49.014Z,101185.79
2024-03-03T10:50:18.858Z,101193.43
2024-03-03T10:52:46.788Z,101187.39
2024-03-03T10:55:15.305Z,101185.67
2024-03-03T10:57:44.155Z,101182.05
2024-03-03T11:00:24.341Z,101177.40
2024-03-03T11:02:54.991Z,101177.27
2024-03-03T11:05:23.988Z,101177.23
2024-03-03T11:07:51.678Z,101175.50
2024-03-03T11:10:19.851Z,101171.33
2024-03-03T11:12:51.405Z,101172.23
2024-03-03T11:15:20.229Z,101174.42
2024-03-03T11:17:59.406Z,101175.61
2024-03-03T11:20:31.587Z,101175.95
2024-03-03T11:23:20.589Z,101178.02
2024-03-03T11:26:01.036Z,101174.56
2024-03-03T11:28:30.007Z,101173.52
2024-03-03T11:30:57.813Z,101171.15
2024-03-03T11:33:25.466Z,101169.91
2024-03-03T11:35:52.996Z,101170.26
2024-03-03T11:38:21.858Z,101171.80
2024-03-03T11:40:50.106Z,101175.60
2024-03-03T11:43:17.729Z,101174.54
2024-03-03T11:45:46.374Z,101173.99
2024-03-03T11:48:14.473Z,101170.34
2024-03-03T11:50:42.137Z,101168.80
2024-03-03T11:53:11.150Z,101168.30
2024-03-03T11:55:42.026Z,101163.65
2024-03-03T11:58:09.758Z,101163.63
2024-03-03T12:00:37.965Z,101164.16
2024-03-03T12:03:07.597Z,101168.80
2024-03-03T12:05:35.128Z,101168.48
2024-03-03T12:08:02.779Z,101168.48
2024-03-03T12:10:33.918Z,101171.20
2024-03-03T12:13:02.862Z,101168.40
2024-03-03T12:15:30.883Z,101172.95
2024-03-03T12:17:59.825Z,101174.67
2024-03-03T12:20:30.929Z,101177.08
2024-03-03T12:24:09.587Z,101178.64
2024-03-03T12:26:37.265Z,101177.96
2024-03-03T12:29:04.954Z,101177.28
2024-03-03T12:31:33.704Z,101180.03
2024-03-03T12:34:01.409Z,101178.31
2024-03-03T12:36:29.056Z,101182.46
2024-03-03T12:38:56.626Z,101181.44
2024-03-03T12:41:24.506Z,101183.01
2024-03-03T12:43:56.876Z,101183.02
2024-03-03T12:46:27.807Z,101184.91
2024-03-03T12:48:55.482Z,101183.54
2024-03-03T12:51:23.023Z,101185.63
2024-03-03T12:53:50.732Z,101182.69
2024-03-03T12:56:20.042Z,101185.80
2024-03-03T12:58:48.507Z,101187.16
2024-03-03T13:01:16.969Z,101184.36
2024-03-03T13:03:55.692Z,101186.41
2024-03-03T13:06:23.506Z,101188.30
2024-03-03T13:08:54.516Z,101192.56
2024-03-03T13:11:23.370Z,101191.00
2024-03-03T13:13:51.784Z,101186.30
2024-03-03T13:16:19.528Z,101188.17
2024-03-03T13:19:02.671Z,101187.39
2024-03-03T13:21:30.576Z,101187.25
2024-03-03T13:24:17.062Z,101190.71
2024-03-03T13:26:44.779Z,101191.23
2024-03-03T13:29:12.372Z,101191.55
2024-03-03T13:31:40.076Z,101197.42
2024-03-03T13:34:07.911Z,101195.17
2024-03-03T13:36:35.619Z,101195.38
2024-03-03T13:39:03.426Z,101194.19
2024-03-03T13:41:31.121Z,101194.44
2024-03-03T13:43:58.838Z,101197.41
2024-03-03T13:46:26.415Z,101196.41
2024-03-03T13:48:54.256Z,101195.54
2024-03-03T13:51:24.139Z,101198.52
2024-03-03T13:53:51.719Z,101195.39
2024-03-03T13:56:19.315Z,101193.66
2024-03-03T13:58:46.867Z,101198.68
2024-03-03T14:01:17.741Z,101192.48
2024-03-03T14:03:45.704Z,101198.52
2024-03-03T14:06:13.202Z,101198.88
2024-03-03T14:08:40.797Z,101193.20
2024-03-03T14:11:09.465Z,101197.34
2024-03-03T14:13:37.152Z,101196.33
2024-03-03T14:16:05.003Z,101192.17
2024-03-03T14:18:32.595Z,101190.50
2024-03-03T14:21:01.282Z,101190.55
2024-03-03T14:23:28.924Z,101193.65
2024-03-03T14:25:56.517Z,101197.61
2024-03-03T14:28:24.335Z,101198.84
2024-03-03T14:30:52.489Z,101202.13
2024-03-03T14:33:20.457Z,101204.73
2024-03-03T14:35:48.043Z,101206.63
2024-03-03T14:38:15.819Z,101207.50
2024-03-03T14:40:43.680Z,101209.23
2024-03-03T14:43:11.402Z,101207.35
2024-03-03T14:45:38.956Z,101213.23
2024-03-03T14:48:07.203Z,101215.49
2024-03-03T14:50:35.375Z,101213.98
2024-03-03T14:53:03.047Z,101217.42
2024-03-03T14:55:30.765Z,101220.88
2024-03-03T14:57:58.453Z,101222.10
2024-03-03T15:00:26.525Z,101221.95
2024-03-03T15:02:54.100Z,101222.80
2024-03-03T15:05:22.228Z,101222.29
2024-03-03T15:07:51.823Z,101225.05
2024-03-03T15:10:19.471Z,101225.22
2024-03-03T15:12:47.099Z,101227.99
2024-03-03T15:15:15.020Z,101230.55
2024-03-03T15:17:42.598Z,101230.38
2024-03-03T15:20:13.304Z,101232.09
2024-03-03T15:22:40.947Z,101236.75
2024-03-03T15:25:09.167Z,101234.52
2024-03-03T15:27:37.989Z,101236.58
2024-03-03T15:30:06.734Z,101234.67
2024-03-03T15:32:34.403Z,101235.89
2024-03-03T15:35:01.945Z,101236.92
2024-03-03T15:37:30.787Z,101238.82
2024-03-03T15:39:58.438Z,101238.46
2024-03-03T15:42:25.918Z,101239.50
2024-03-03T15:44:53.437Z,101241.05
2024-03-03T15:47:20.947Z,101241.56
2024-03-03T15:49:48.570Z,101243.29
2024-03-03T15:52:16.140Z,101246.17
2024-03-03T15:54:43.715Z,101248.05
2024-03-03T15:57:11.241Z,101245.30
2024-03-03T15:59:38.771Z,101250.98
2024-03-03T16:02:06.518Z,101254.93
2024-03-03T16:04:34.202Z,101258.02
2024-03-03T16:07:01.861Z,101260.42
2024-03-03T16:09:29.562Z,101262.79
2024-03-03T16:11:57.360Z,101265.19
2024-03-03T16:14:24.980Z,101269.81
2024-03-03T16:16:52.659Z,101273.73
2024-03-03T16:19:20.514Z,101273.55
2024-03-03T16:21:48.193Z,101276.08
2024-03-03T16:24:15.836Z,101277.11
2024-03-03T16:26:44.514Z,101283.81
2024-03-03T16:29:12.113Z,101281.39
2024-03-03T16:31:40.379Z,101283.45
2024-03-03T16:34:08.664Z,101286.35
2024-03-03T16:36:36.342Z,101284.09
2024-03-03T16:39:09.038Z,101282.88
2024-03-03T16:41:36.911Z,101288.20
2024-03-03T16:44:04.640Z,101287.45
2024-03-03T16:46:32.376Z,101287.77
2024-03-03T16:49:00.734Z,101287.88
2024-03-03T16:51:28.677Z,101286.80
2024-03-03T16:53:56.267Z,101289.52
2024-03-03T16:56:23.873Z,101291.73
2024-03-03T16:58:53.056Z,101294.31
2024-03-03T17:01:21.886Z,101291.75
2024-03-03T17:03:49.492Z,101294.16
2024-03-03T17:06:17.389Z,101293.31
2024-03-03T17:08:44.950Z,101295.21
2024-03-03T17:11:12.676Z,101299.18
2024-03-03T17:13:40.310Z,101300.53
2024-03-03T17:16:07.907Z,101300.53
2024-03-03T17:18:35.707Z,101299.48
2024-03-03T17:21:06.274Z,101302.08
2024-03-03T17:23:33.813Z,101301.92
2024-03-03T17:26:01.350Z,101304.16
2024-03-03T17:28:29.389Z,101301.25
2024-03-03T17:30:57.940Z,101296.60
2024-03-03T17:33:25.607Z,101291.95
2024-03-03T17:35:53.202Z,101294.15
2024-03-03T17:38:20.770Z,101298.26
2024-03-03T17:40:48.325Z,101298.19
2024-03-03T17:43:15.963Z,101298.80
2024-03-03T17:45:43.504Z,101299.62
2024-03-03T17:48:11.199Z,101301.77
2024-03-03T17:50:38.922Z,101300.73
2024-03-03T17:53:06.964Z,101303.64
2024-03-03T17:55:35.805Z,101303.05
2024-03-03T17:58:04.239Z,101302.65
2024-03-03T18:00:31.825Z,101305.25
2024-03-03T18:02:59.940Z,101306.27
2024-03-03T18:05:27.561Z,101309.04
2024-03-03T18:07:56.100Z,101314.03
2024-03-03T18:10:23.758Z,101315.73
2024-03-03T18:12:51.475Z,101318.31
2024-03-03T18:15:19.172Z,101319.35
2024-03-03T18:17:46.978Z,101317.63
2024-03-03T18:20:16.940Z,101316.98
2024-03-03T18:22:45.805Z,101320.39
2024-03-03T18:25:13.664Z,101322.13
2024-03-03T18:27:42.845Z,101318.87
2024-03-03T18:30:11.681Z,101321.52
2024-03-03T18:32:39.484Z,101325.48
2024-03-03T18:35:14.080Z,101327.22
2024-03-03T18:37:45.358Z,101327.73
2024-03-03T18:40:16.107Z,101328.90
2024-03-03T18:42:48.536Z,101330.11
2024-03-03T18:45:16.362Z,101330.66
2024-03-03T18:47:44.695Z,101330.60
2024-03-03T18:50:14.029Z,101328.80
2024-03-03T18:52:42.196Z,101333.79
2024-03-03T18:55:09.994Z,101337.41
2024-03-03T18:57:37.810Z,101339.23
2024-03-03T19:00:08.873Z,101338.21
2024-03-03T19:02:36.474Z,101336.64
2024-03-03T19:05:08.309Z,101334.94
2024-03-03T19:07:35.910Z,101338.33
2024-03-03T19:10:04.060Z,101342.55
2024-03-03T19:12:32.488Z,101342.40
2024-03-03T19:15:00.180Z,101342.96
2024-03-03T19:17:27.965Z,101340.17
2024-03-03T19:19:55.587Z,101347.84
2024-03-03T19:22:25.897Z,101351.76
2024-03-03T19:24:53.684Z,101348.75
2024-03-03T19:27:22.628Z,101353.02
2024-03-03T19:29:50.519Z,101352.48
2024-03-03T19:32:19.529Z,101353.57
2024-03-03T19:34:47.133Z,101361.89
2024-03-03T19:37:15.654Z,101361.40
2024-03-03T19:39:44.410Z,101367.41
2024-03-03T19:42:19.326Z,101368.27
2024-03-03T19:44:47.995Z,101367.41
2024-03-03T19:47:15.670Z,101366.89
2024-03-03T19:49:45.035Z,101368.09
2024-03-03T19:52:15.120Z,101369.79
2024-03-03T19:54:43.103Z,101368.09
2024-03-03T19:57:13.651Z,101370.98
2024-03-03T19:59:42.435Z,101373.02
2024-03-03T20:02:10.217Z,101373.12
2024-03-03T20:04:37.932Z,101369.65
2024-03-03T20:07:06.641Z,101370.37
2024-03-03T20:09:35.786Z,101369.41
2024-03-03T20:12:03.561Z,101371.98
2024-03-03T20:14:31.351Z,101370.54
2024-03-03T20:16:59.058Z,101371.51
2024-03-03T20:19:28.241Z,101375.09
2024-03-03T20:21:55.801Z,101370.99
2024-03-03T20:24:23.480Z,101370.30
2024-03-03T20:26:51.072Z,101371.31
2024-03-03T20:29:18.620Z,101371.73
2024-03-03T20:31:46.182Z,101376.79
2024-03-03T20:34:14.007Z,101380.30
2024-03-03T20:36:43.853Z,101379.70
2024-03-03T20:39:11.452Z,101377.20
2024-03-03T20:41:44.113Z,101378.84
2024-03-03T20:44:11.711Z,101376.26
2024-03-03T20:46:42.676Z,101374.38
2024-03-03T20:49:10.831Z,101371.63
2024-03-03T20:51:38.495Z,101375.19
2024-03-03T20:54:09.234Z,101373.44
2024-03-03T20:56:36.893Z,101375.15
2024-03-03T20:59:04.525Z,101373.88
2024-03-03T21:01:35.627Z,101372.66
2024-03-03T21:04:03.150Z,101372.94
2024-03-03T21:06:31.006Z,101378.61
2024-03-03T21:08:58.800Z,101376.19
2024-03-03T21:11:27.245Z,101375.14
2024-03-03T21:13:59.204Z,101376.00
2024-03-03T21:16:26.957Z,101372.61
2024-03-03T21:18:54.626Z,101375.52
2024-03-03T21:21:22.639Z,101372.08
2024-03-03T21:23:50.158Z,101370.21
2024-03-03T21:26:17.687Z,101368.65
2024-03-03T21:28:45.299Z,101366.55
2024-03-03T21:31:12.885Z,101367.71
2024-03-03T21:33:40.404Z,101369.69
2024-03-03T21:36:12.589Z,101367.96
2024-03-03T21:38:40.339Z,101367.08
2024-03-03T21:41:07.946Z,101366.92
2024-03-03T21:43:35.589Z,101363.95
2024-03-03T21:46:04.576Z,101361.69
2024-03-03T21:48:32.108Z,101362.52
2024-03-03T21:50:59.612Z,101357.88
2024-03-03T21:53:27.051Z,101358.43
2024-03-03T21:55:54.537Z,101354.15
2024-03-03T21:58:22.919Z,101355.80
2024-03-03T22:00:51.051Z,101355.26
2024-03-03T22:03:18.716Z,101355.55
2024-03-03T22:05:46.312Z,101348.36
2024-03-03T22:08:13.778Z,101349.58
2024-03-03T22:10:41.393Z,101351.29
2024-03-03T22:13:09.059Z,101353.97
2024-03-03T22:15:36.660Z,101357.56
2024-03-03T22:18:04.410Z,101358.90
2024-03-03T22:20:31.964Z,101359.54
2024-03-03T22:22:59.436Z,101357.98
2024-03-03T22:25:26.910Z,101357.27
2024-03-03T22:27:55.094Z,101359.34
2024-03-03T22:30:22.976Z,101358.50
2024-03-03T22:32:50.531Z,101360.14
2024-03-03T22:35:18.140Z,101357.05
2024-03-03T22:37:45.628Z,101354.58
2024-03-03T22:40:13.985Z,101354.62
2024-03-03T22:42:41.681Z,101357.35
2024-03-03T22:45:09.380Z,101355.21
2024-03-03T22:47:36.986Z,101354.70
2024-03-03T22:50:05.540Z,101352.61
2024-03-03T22:52:33.804Z,101354.83
2024-03-03T22:55:01.706Z,101351.00
2024-03-03T22:57:29.383Z,101350.29
2024-03-03T22:59:56.859Z,101353.54
2024-03-03T23:02:24.421Z,101356.69
2024-03-03T23:04:54.454Z,101355.20
2024-03-03T23:07:23.065Z,101359.70
2024-03-03T23:09:50.599Z,101359.73
2024-03-03T23:12:18.686Z,101361.10
2024-03-03T23:14:46.212Z,101364.29
2024-03-03T23:17:13.960Z,101364.90
2024-03-03T23:19:41.475Z,101363.95
2024-03-03T23:22:09.004Z,101365.37
2024-03-03T23:24:36.592Z,101369.92
2024-03-03T23:27:04.340Z,101370.80
2024-03-03T23:29:31.916Z,101367.58
2024-03-03T23:31:59.572Z,101372.70
2024-03-03T23:34:27.164Z,101368.74
2024-03-03T23:36:54.697Z,101369.80
2024-03-03T23:39:22.352Z,101374.55
2024-03-03T23:41:50.966Z,101371.80
2024-03-03T23:44:18.422Z,101372.16
2024-03-03T23:46:45.907Z,101375.79
2024-03-03T23:49:13.612Z,101371.61
2024-03-03T23:51:41.166Z,101370.91
2024-03-03T23:54:08.786Z,101370.31
2024-03-03T23:56:37.923Z,101369.20
2024-03-03T23:59:05.370Z,101374.50
